Havana, Arkansas
Current Conditions -  °F | °C
As of 2:26 AM on Sunday 26 Oct 2014 (Local Time) from KRUE Reporting Station
Haze Haze  
Wind Chill: 58°   Ceiling: Unl
Heat Index: 58°   Visibility: 1.2mi
Dew Point: 57°   Wind: 0mph
Humidity: 97%   Direction: NA
Pressure: 30.01"   Gusts: NA
Location:  35.11°N, 93.53°W
Report Text: KRUE 260726Z AUTO 00000KT 1 1/4SM BR SCT005 14/14 A3001 RMK AO2 VIS 1/2V3 T01440139
Loading
Personal Weather Stations






























Interactive Weather Map
Tropical Storm Tracking
New forecast layout! Learn more

10-Day Weather Forecast

Advertisements
Track Severe Weather on mobile